sensor_id;sensor_type;location;lat;lon;timestamp;P1;durP1;ratioP1;P2;durP2;ratioP2
20379;SDS011;10349;48.666;8.948;2023-05-10T00:00:28;1.50;;;1.40;;
20379;SDS011;10349;48.666;8.948;2023-05-10T00:02:53;1.10;;;1.00;;
20379;SDS011;10349;48.666;8.948;2023-05-10T00:05:19;1.43;;;1.33;;
20379;SDS011;10349;48.666;8.948;2023-05-10T00:07:45;1.30;;;1.20;;
20379;SDS011;10349;48.666;8.948;2023-05-10T00:10:11;1.93;;;1.13;;
20379;SDS011;10349;48.666;8.948;2023-05-10T00:12:37;0.97;;;0.80;;
20379;SDS011;10349;48.666;8.948;2023-05-10T00:15:02;1.33;;;1.00;;
20379;SDS011;10349;48.666;8.948;2023-05-10T00:17:28;1.10;;;1.00;;
20379;SDS011;10349;48.666;8.948;2023-05-10T00:19:54;1.30;;;1.00;;
20379;SDS011;10349;48.666;8.948;2023-05-10T00:22:20;0.90;;;0.80;;
20379;SDS011;10349;48.666;8.948;2023-05-10T00:24:46;3.50;;;0.83;;
20379;SDS011;10349;48.666;8.948;2023-05-10T00:27:11;0.90;;;0.60;;
20379;SDS011;10349;48.666;8.948;2023-05-10T00:29:37;0.90;;;0.70;;
20379;SDS011;10349;48.666;8.948;2023-05-10T00:32:03;0.90;;;0.70;;
20379;SDS011;10349;48.666;8.948;2023-05-10T00:34:29;0.90;;;0.60;;
20379;SDS011;10349;48.666;8.948;2023-05-10T00:36:55;0.80;;;0.60;;
20379;SDS011;10349;48.666;8.948;2023-05-10T00:39:21;0.90;;;0.60;;
20379;SDS011;10349;48.666;8.948;2023-05-10T00:41:47;0.97;;;0.60;;
20379;SDS011;10349;48.666;8.948;2023-05-10T00:44:12;1.40;;;0.90;;
20379;SDS011;10349;48.666;8.948;2023-05-10T00:46:38;0.90;;;0.60;;
20379;SDS011;10349;48.666;8.948;2023-05-10T00:49:04;0.90;;;0.60;;
20379;SDS011;10349;48.666;8.948;2023-05-10T00:51:30;0.87;;;0.60;;
20379;SDS011;10349;48.666;8.948;2023-05-10T00:53:56;0.90;;;0.70;;
20379;SDS011;10349;48.666;8.948;2023-05-10T00:56:23;0.80;;;0.60;;
20379;SDS011;10349;48.666;8.948;2023-05-10T00:58:50;0.80;;;0.50;;
20379;SDS011;10349;48.666;8.948;2023-05-10T01:01:16;0.80;;;0.53;;
20379;SDS011;10349;48.666;8.948;2023-05-10T01:03:42;0.80;;;0.50;;
20379;SDS011;10349;48.666;8.948;2023-05-10T01:06:08;0.80;;;0.60;;
20379;SDS011;10349;48.666;8.948;2023-05-10T01:08:38;0.90;;;0.60;;
20379;SDS011;10349;48.666;8.948;2023-05-10T01:11:04;0.90;;;0.50;;
20379;SDS011;10349;48.666;8.948;2023-05-10T01:13:39;1.17;;;0.67;;
20379;SDS011;10349;48.666;8.948;2023-05-10T01:16:07;0.90;;;0.60;;
20379;SDS011;10349;48.666;8.948;2023-05-10T01:18:35;0.80;;;0.50;;
20379;SDS011;10349;48.666;8.948;2023-05-10T01:34:59;1.20;;;0.70;;
20379;SDS011;10349;48.666;8.948;2023-05-10T01:40:30;0.80;;;0.60;;
20379;SDS011;10349;48.666;8.948;2023-05-10T01:43:03;1.63;;;0.70;;
20379;SDS011;10349;48.666;8.948;2023-05-10T01:45:41;1.83;;;0.60;;
20379;SDS011;10349;48.666;8.948;2023-05-10T01:48:15;0.80;;;0.60;;
20379;SDS011;10349;48.666;8.948;2023-05-10T01:50:45;0.80;;;0.60;;
20379;SDS011;10349;48.666;8.948;2023-05-10T01:53:13;0.90;;;0.80;;
20379;SDS011;10349;48.666;8.948;2023-05-10T01:55:50;0.90;;;0.67;;
20379;SDS011;10349;48.666;8.948;2023-05-10T01:58:27;0.97;;;0.87;;
20379;SDS011;10349;48.666;8.948;2023-05-10T02:00:58;1.10;;;0.70;;
20379;SDS011;10349;48.666;8.948;2023-05-10T02:03:26;1.10;;;0.87;;
20379;SDS011;10349;48.666;8.948;2023-05-10T02:05:53;1.10;;;0.80;;
20379;SDS011;10349;48.666;8.948;2023-05-10T02:08:21;1.00;;;0.60;;
20379;SDS011;10349;48.666;8.948;2023-05-10T02:10:48;0.90;;;0.73;;
20379;SDS011;10349;48.666;8.948;2023-05-10T02:13:15;0.90;;;0.70;;
20379;SDS011;10349;48.666;8.948;2023-05-10T02:15:43;0.90;;;0.70;;
20379;SDS011;10349;48.666;8.948;2023-05-10T02:18:14;0.97;;;0.70;;
20379;SDS011;10349;48.666;8.948;2023-05-10T02:20:42;0.90;;;0.70;;
20379;SDS011;10349;48.666;8.948;2023-05-10T02:23:10;0.97;;;0.70;;
20379;SDS011;10349;48.666;8.948;2023-05-10T02:25:36;0.90;;;0.60;;
20379;SDS011;10349;48.666;8.948;2023-05-10T02:28:04;0.90;;;0.70;;
20379;SDS011;10349;48.666;8.948;2023-05-10T02:30:32;1.10;;;0.80;;
20379;SDS011;10349;48.666;8.948;2023-05-10T02:33:00;2.80;;;1.00;;
20379;SDS011;10349;48.666;8.948;2023-05-10T02:35:28;0.90;;;0.77;;
20379;SDS011;10349;48.666;8.948;2023-05-10T02:37:54;1.00;;;0.90;;
20379;SDS011;10349;48.666;8.948;2023-05-10T02:40:21;0.97;;;0.87;;
20379;SDS011;10349;48.666;8.948;2023-05-10T02:42:48;1.00;;;0.90;;
20379;SDS011;10349;48.666;8.948;2023-05-10T02:45:18;1.00;;;0.90;;
20379;SDS011;10349;48.666;8.948;2023-05-10T02:47:46;1.00;;;0.73;;
20379;SDS011;10349;48.666;8.948;2023-05-10T02:50:15;0.90;;;0.80;;
20379;SDS011;10349;48.666;8.948;2023-05-10T02:52:47;4.40;;;1.30;;
20379;SDS011;10349;48.666;8.948;2023-05-10T02:55:17;1.13;;;1.03;;
20379;SDS011;10349;48.666;8.948;2023-05-10T02:57:57;1.13;;;1.03;;
20379;SDS011;10349;48.666;8.948;2023-05-10T03:00:25;1.10;;;1.00;;
20379;SDS011;10349;48.666;8.948;2023-05-10T03:02:51;1.20;;;1.07;;
20379;SDS011;10349;48.666;8.948;2023-05-10T03:05:17;1.20;;;0.93;;
20379;SDS011;10349;48.666;8.948;2023-05-10T03:07:43;1.50;;;1.33;;
20379;SDS011;10349;48.666;8.948;2023-05-10T03:10:10;1.07;;;0.80;;
20379;SDS011;10349;48.666;8.948;2023-05-10T03:13:01;1.27;;;1.00;;
20379;SDS011;10349;48.666;8.948;2023-05-10T03:15:57;1.20;;;1.10;;
20379;SDS011;10349;48.666;8.948;2023-05-10T03:21:10;1.00;;;0.90;;
20379;SDS011;10349;48.666;8.948;2023-05-10T03:23:43;1.60;;;1.50;;
20379;SDS011;10349;48.666;8.948;2023-05-10T03:26:15;1.10;;;1.00;;
20379;SDS011;10349;48.666;8.948;2023-05-10T03:28:47;1.37;;;1.27;;
20379;SDS011;10349;48.666;8.948;2023-05-10T03:31:14;1.30;;;1.10;;
20379;SDS011;10349;48.666;8.948;2023-05-10T03:33:48;1.60;;;1.50;;
20379;SDS011;10349;48.666;8.948;2023-05-10T03:36:17;1.40;;;1.30;;
20379;SDS011;10349;48.666;8.948;2023-05-10T03:38:43;1.37;;;1.27;;
20379;SDS011;10349;48.666;8.948;2023-05-10T03:41:11;1.30;;;1.20;;
20379;SDS011;10349;48.666;8.948;2023-05-10T03:43:37;1.50;;;1.30;;
20379;SDS011;10349;48.666;8.948;2023-05-10T03:46:03;1.40;;;1.30;;
20379;SDS011;10349;48.666;8.948;2023-05-10T03:48:30;1.50;;;1.37;;
20379;SDS011;10349;48.666;8.948;2023-05-10T03:50:57;1.30;;;1.20;;
20379;SDS011;10349;48.666;8.948;2023-05-10T03:53:23;1.73;;;1.27;;
20379;SDS011;10349;48.666;8.948;2023-05-10T03:55:49;1.30;;;1.20;;
20379;SDS011;10349;48.666;8.948;2023-05-10T03:58:15;1.60;;;1.50;;
20379;SDS011;10349;48.666;8.948;2023-05-10T04:00:41;1.50;;;1.40;;
20379;SDS011;10349;48.666;8.948;2023-05-10T04:03:09;1.40;;;1.17;;
20379;SDS011;10349;48.666;8.948;2023-05-10T04:05:35;1.67;;;1.57;;
20379;SDS011;10349;48.666;8.948;2023-05-10T04:08:02;1.20;;;1.10;;
20379;SDS011;10349;48.666;8.948;2023-05-10T04:10:29;1.63;;;1.53;;
20379;SDS011;10349;48.666;8.948;2023-05-10T04:12:55;1.40;;;1.30;;
20379;SDS011;10349;48.666;8.948;2023-05-10T04:15:21;1.20;;;1.10;;
20379;SDS011;10349;48.666;8.948;2023-05-10T04:17:47;2.07;;;1.63;;
20379;SDS011;10349;48.666;8.948;2023-05-10T04:20:13;1.30;;;1.20;;
20379;SDS011;10349;48.666;8.948;2023-05-10T04:22:39;1.33;;;1.23;;
20379;SDS011;10349;48.666;8.948;2023-05-10T04:25:05;1.40;;;1.30;;
20379;SDS011;10349;48.666;8.948;2023-05-10T04:27:31;3.00;;;1.60;;
20379;SDS011;10349;48.666;8.948;2023-05-10T04:29:57;1.40;;;1.30;;
20379;SDS011;10349;48.666;8.948;2023-05-10T04:32:23;1.50;;;1.30;;
20379;SDS011;10349;48.666;8.948;2023-05-10T04:34:49;1.47;;;1.37;;
20379;SDS011;10349;48.666;8.948;2023-05-10T04:37:17;4.20;;;1.60;;
20379;SDS011;10349;48.666;8.948;2023-05-10T04:39:43;2.00;;;1.80;;
20379;SDS011;10349;48.666;8.948;2023-05-10T04:42:09;5.90;;;1.43;;
20379;SDS011;10349;48.666;8.948;2023-05-10T04:44:36;1.63;;;1.40;;
20379;SDS011;10349;48.666;8.948;2023-05-10T04:47:02;1.80;;;1.70;;
20379;SDS011;10349;48.666;8.948;2023-05-10T04:49:28;4.83;;;2.00;;
20379;SDS011;10349;48.666;8.948;2023-05-10T04:51:54;2.30;;;1.93;;
20379;SDS011;10349;48.666;8.948;2023-05-10T04:54:20;1.93;;;1.83;;
20379;SDS011;10349;48.666;8.948;2023-05-10T04:56:46;2.43;;;2.23;;
20379;SDS011;10349;48.666;8.948;2023-05-10T04:59:12;1.70;;;1.60;;
20379;SDS011;10349;48.666;8.948;2023-05-10T05:01:38;1.90;;;1.80;;
20379;SDS011;10349;48.666;8.948;2023-05-10T05:04:04;2.23;;;2.03;;
20379;SDS011;10349;48.666;8.948;2023-05-10T05:06:30;1.97;;;1.87;;
20379;SDS011;10349;48.666;8.948;2023-05-10T05:08:56;1.97;;;1.83;;
20379;SDS011;10349;48.666;8.948;2023-05-10T05:11:23;2.00;;;1.80;;
20379;SDS011;10349;48.666;8.948;2023-05-10T05:13:48;2.43;;;2.23;;
20379;SDS011;10349;48.666;8.948;2023-05-10T05:16:14;2.70;;;2.50;;
20379;SDS011;10349;48.666;8.948;2023-05-10T05:18:40;2.23;;;2.03;;
20379;SDS011;10349;48.666;8.948;2023-05-10T05:21:15;6.83;;;2.80;;
20379;SDS011;10349;48.666;8.948;2023-05-10T05:23:42;2.10;;;2.00;;
20379;SDS011;10349;48.666;8.948;2023-05-10T05:26:08;3.70;;;2.50;;
20379;SDS011;10349;48.666;8.948;2023-05-10T05:28:34;2.20;;;2.00;;
20379;SDS011;10349;48.666;8.948;2023-05-10T05:31:02;3.27;;;2.37;;
20379;SDS011;10349;48.666;8.948;2023-05-10T05:33:36;2.13;;;2.00;;
20379;SDS011;10349;48.666;8.948;2023-05-10T05:36:05;1.80;;;1.70;;
20379;SDS011;10349;48.666;8.948;2023-05-10T05:38:31;2.20;;;2.03;;
20379;SDS011;10349;48.666;8.948;2023-05-10T05:40:56;2.00;;;1.80;;
20379;SDS011;10349;48.666;8.948;2023-05-10T05:43:24;2.70;;;2.50;;
20379;SDS011;10349;48.666;8.948;2023-05-10T05:45:51;1.73;;;1.63;;
20379;SDS011;10349;48.666;8.948;2023-05-10T05:48:18;2.00;;;1.90;;
20379;SDS011;10349;48.666;8.948;2023-05-10T05:50:44;3.17;;;1.97;;
20379;SDS011;10349;48.666;8.948;2023-05-10T05:53:10;2.10;;;2.00;;
20379;SDS011;10349;48.666;8.948;2023-05-10T05:55:36;2.90;;;2.13;;
20379;SDS011;10349;48.666;8.948;2023-05-10T05:58:02;2.80;;;2.13;;
20379;SDS011;10349;48.666;8.948;2023-05-10T06:00:28;2.50;;;2.30;;
20379;SDS011;10349;48.666;8.948;2023-05-10T06:03:11;2.37;;;2.17;;
20379;SDS011;10349;48.666;8.948;2023-05-10T06:05:38;2.37;;;2.27;;
20379;SDS011;10349;48.666;8.948;2023-05-10T06:08:03;2.83;;;2.63;;
20379;SDS011;10349;48.666;8.948;2023-05-10T06:10:33;3.43;;;2.30;;
20379;SDS011;10349;48.666;8.948;2023-05-10T06:13:02;2.07;;;1.87;;
20379;SDS011;10349;48.666;8.948;2023-05-10T06:15:28;2.83;;;2.63;;
20379;SDS011;10349;48.666;8.948;2023-05-10T06:17:58;2.60;;;2.40;;
20379;SDS011;10349;48.666;8.948;2023-05-10T06:20:26;3.00;;;2.80;;
20379;SDS011;10349;48.666;8.948;2023-05-10T06:22:52;2.20;;;2.00;;
20379;SDS011;10349;48.666;8.948;2023-05-10T06:25:18;2.53;;;2.40;;
20379;SDS011;10349;48.666;8.948;2023-05-10T06:27:44;2.87;;;2.20;;
20379;SDS011;10349;48.666;8.948;2023-05-10T06:30:11;2.30;;;2.10;;
20379;SDS011;10349;48.666;8.948;2023-05-10T06:32:38;1.90;;;1.80;;
20379;SDS011;10349;48.666;8.948;2023-05-10T06:35:04;1.93;;;1.83;;
20379;SDS011;10349;48.666;8.948;2023-05-10T06:37:30;2.33;;;2.10;;
20379;SDS011;10349;48.666;8.948;2023-05-10T06:39:55;2.30;;;1.50;;
20379;SDS011;10349;48.666;8.948;2023-05-10T06:42:21;1.97;;;1.73;;
20379;SDS011;10349;48.666;8.948;2023-05-10T06:44:47;1.73;;;1.63;;
20379;SDS011;10349;48.666;8.948;2023-05-10T06:47:13;3.00;;;2.80;;
20379;SDS011;10349;48.666;8.948;2023-05-10T06:49:38;2.20;;;1.90;;
20379;SDS011;10349;48.666;8.948;2023-05-10T06:52:05;1.60;;;1.50;;
20379;SDS011;10349;48.666;8.948;2023-05-10T06:54:30;1.50;;;1.40;;
20379;SDS011;10349;48.666;8.948;2023-05-10T06:56:56;2.50;;;2.33;;
20379;SDS011;10349;48.666;8.948;2023-05-10T06:59:21;2.30;;;1.90;;
20379;SDS011;10349;48.666;8.948;2023-05-10T07:01:47;1.70;;;1.60;;
20379;SDS011;10349;48.666;8.948;2023-05-10T07:04:13;1.87;;;1.60;;
20379;SDS011;10349;48.666;8.948;2023-05-10T07:11:56;1.70;;;1.47;;
20379;SDS011;10349;48.666;8.948;2023-05-10T07:14:22;1.87;;;1.73;;
20379;SDS011;10349;48.666;8.948;2023-05-10T07:16:48;1.40;;;1.30;;
20379;SDS011;10349;48.666;8.948;2023-05-10T07:19:14;3.03;;;2.10;;
20379;SDS011;10349;48.666;8.948;2023-05-10T07:21:40;1.50;;;1.40;;
20379;SDS011;10349;48.666;8.948;2023-05-10T07:24:07;1.80;;;1.70;;
20379;SDS011;10349;48.666;8.948;2023-05-10T07:26:33;1.53;;;1.43;;
20379;SDS011;10349;48.666;8.948;2023-05-10T07:28:58;1.40;;;1.30;;
20379;SDS011;10349;48.666;8.948;2023-05-10T07:31:24;1.40;;;1.30;;
20379;SDS011;10349;48.666;8.948;2023-05-10T07:33:50;1.63;;;1.53;;
20379;SDS011;10349;48.666;8.948;2023-05-10T07:36:16;2.57;;;1.60;;
20379;SDS011;10349;48.666;8.948;2023-05-10T07:38:41;1.50;;;1.40;;
20379;SDS011;10349;48.666;8.948;2023-05-10T07:41:07;1.13;;;1.03;;
20379;SDS011;10349;48.666;8.948;2023-05-10T07:43:33;1.30;;;0.90;;
20379;SDS011;10349;48.666;8.948;2023-05-10T07:45:58;1.13;;;1.00;;
20379;SDS011;10349;48.666;8.948;2023-05-10T07:48:25;1.10;;;1.00;;
20379;SDS011;10349;48.666;8.948;2023-05-10T07:50:51;2.43;;;0.80;;
20379;SDS011;10349;48.666;8.948;2023-05-10T07:53:16;1.60;;;0.90;;
20379;SDS011;10349;48.666;8.948;2023-05-10T07:55:43;1.10;;;1.00;;
20379;SDS011;10349;48.666;8.948;2023-05-10T07:58:10;1.00;;;0.80;;
20379;SDS011;10349;48.666;8.948;2023-05-10T08:00:35;0.97;;;0.87;;
20379;SDS011;10349;48.666;8.948;2023-05-10T08:03:04;2.13;;;1.17;;
20379;SDS011;10349;48.666;8.948;2023-05-10T08:05:30;1.00;;;0.87;;
20379;SDS011;10349;48.666;8.948;2023-05-10T08:07:56;1.00;;;0.80;;
20379;SDS011;10349;48.666;8.948;2023-05-10T08:10:21;1.10;;;0.83;;
20379;SDS011;10349;48.666;8.948;2023-05-10T08:12:49;1.03;;;0.80;;
20379;SDS011;10349;48.666;8.948;2023-05-10T08:15:15;1.00;;;0.90;;
20379;SDS011;10349;48.666;8.948;2023-05-10T08:17:40;3.10;;;0.90;;
20379;SDS011;10349;48.666;8.948;2023-05-10T08:20:08;0.90;;;0.60;;
20379;SDS011;10349;48.666;8.948;2023-05-10T08:22:34;1.47;;;0.80;;
20379;SDS011;10349;48.666;8.948;2023-05-10T08:25:00;0.90;;;0.70;;
20379;SDS011;10349;48.666;8.948;2023-05-10T08:27:26;1.40;;;0.70;;
20379;SDS011;10349;48.666;8.948;2023-05-10T08:29:51;3.53;;;0.90;;
20379;SDS011;10349;48.666;8.948;2023-05-10T08:32:17;0.90;;;0.80;;
20379;SDS011;10349;48.666;8.948;2023-05-10T08:34:43;1.90;;;0.77;;
20379;SDS011;10349;48.666;8.948;2023-05-10T08:37:08;0.80;;;0.60;;
20379;SDS011;10349;48.666;8.948;2023-05-10T08:39:35;1.00;;;0.80;;
20379;SDS011;10349;48.666;8.948;2023-05-10T08:42:01;0.97;;;0.60;;
20379;SDS011;10349;48.666;8.948;2023-05-10T08:44:30;0.80;;;0.50;;
20379;SDS011;10349;48.666;8.948;2023-05-10T08:46:57;1.10;;;0.80;;
20379;SDS011;10349;48.666;8.948;2023-05-10T08:49:26;1.03;;;0.80;;
20379;SDS011;10349;48.666;8.948;2023-05-10T08:51:55;1.13;;;0.60;;
20379;SDS011;10349;48.666;8.948;2023-05-10T08:54:24;0.90;;;0.70;;
20379;SDS011;10349;48.666;8.948;2023-05-10T08:56:50;1.83;;;0.70;;
20379;SDS011;10349;48.666;8.948;2023-05-10T08:59:16;1.33;;;1.23;;
20379;SDS011;10349;48.666;8.948;2023-05-10T09:01:42;3.57;;;0.80;;
20379;SDS011;10349;48.666;8.948;2023-05-10T09:04:10;0.90;;;0.70;;
20379;SDS011;10349;48.666;8.948;2023-05-10T09:06:37;0.90;;;0.70;;
20379;SDS011;10349;48.666;8.948;2023-05-10T09:09:03;0.90;;;0.70;;
20379;SDS011;10349;48.666;8.948;2023-05-10T09:11:29;0.90;;;0.63;;
20379;SDS011;10349;48.666;8.948;2023-05-10T09:13:55;0.90;;;0.60;;
20379;SDS011;10349;48.666;8.948;2023-05-10T09:16:21;0.90;;;0.70;;
20379;SDS011;10349;48.666;8.948;2023-05-10T09:18:47;1.00;;;0.70;;
20379;SDS011;10349;48.666;8.948;2023-05-10T09:21:14;0.90;;;0.60;;
20379;SDS011;10349;48.666;8.948;2023-05-10T09:23:44;1.20;;;0.90;;
20379;SDS011;10349;48.666;8.948;2023-05-10T09:26:10;0.90;;;0.60;;
20379;SDS011;10349;48.666;8.948;2023-05-10T09:28:51;1.20;;;0.80;;
20379;SDS011;10349;48.666;8.948;2023-05-10T09:31:18;1.43;;;0.70;;
20379;SDS011;10349;48.666;8.948;2023-05-10T09:33:45;0.80;;;0.60;;
20379;SDS011;10349;48.666;8.948;2023-05-10T09:36:12;1.50;;;0.70;;
20379;SDS011;10349;48.666;8.948;2023-05-10T09:39:11;0.80;;;0.60;;
20379;SDS011;10349;48.666;8.948;2023-05-10T09:41:30;1.00;;;0.70;;
20379;SDS011;10349;48.666;8.948;2023-05-10T09:43:56;0.97;;;0.73;;
20379;SDS011;10349;48.666;8.948;2023-05-10T09:46:22;0.97;;;0.60;;
20379;SDS011;10349;48.666;8.948;2023-05-10T09:48:47;0.90;;;0.60;;
20379;SDS011;10349;48.666;8.948;2023-05-10T09:53:46;0.83;;;0.60;;
20379;SDS011;10349;48.666;8.948;2023-05-10T09:56:12;0.80;;;0.60;;
20379;SDS011;10349;48.666;8.948;2023-05-10T09:58:39;0.80;;;0.60;;
20379;SDS011;10349;48.666;8.948;2023-05-10T10:01:09;0.90;;;0.70;;
20379;SDS011;10349;48.666;8.948;2023-05-10T10:03:40;3.27;;;0.70;;
20379;SDS011;10349;48.666;8.948;2023-05-10T10:06:07;0.80;;;0.60;;
20379;SDS011;10349;48.666;8.948;2023-05-10T10:08:34;0.90;;;0.60;;
20379;SDS011;10349;48.666;8.948;2023-05-10T10:10:59;0.90;;;0.60;;
20379;SDS011;10349;48.666;8.948;2023-05-10T10:13:26;1.00;;;0.80;;
20379;SDS011;10349;48.666;8.948;2023-05-10T10:15:52;1.00;;;0.80;;
20379;SDS011;10349;48.666;8.948;2023-05-10T10:18:19;1.00;;;0.90;;
20379;SDS011;10349;48.666;8.948;2023-05-10T10:20:52;1.47;;;0.60;;
20379;SDS011;10349;48.666;8.948;2023-05-10T10:23:19;0.90;;;0.63;;
20379;SDS011;10349;48.666;8.948;2023-05-10T10:25:45;0.90;;;0.80;;
20379;SDS011;10349;48.666;8.948;2023-05-10T10:31:13;2.13;;;0.70;;
20379;SDS011;10349;48.666;8.948;2023-05-10T10:36:24;1.00;;;0.80;;
20379;SDS011;10349;48.666;8.948;2023-05-10T10:41:28;2.80;;;0.90;;
20379;SDS011;10349;48.666;8.948;2023-05-10T10:49:50;3.87;;;0.90;;
20379;SDS011;10349;48.666;8.948;2023-05-10T10:52:21;0.90;;;0.73;;
20379;SDS011;10349;48.666;8.948;2023-05-10T10:54:58;0.90;;;0.70;;
20379;SDS011;10349;48.666;8.948;2023-05-10T10:57:26;0.80;;;0.60;;
20379;SDS011;10349;48.666;8.948;2023-05-10T11:02:57;1.03;;;0.80;;
20379;SDS011;10349;48.666;8.948;2023-05-10T11:05:43;1.40;;;0.70;;
20379;SDS011;10349;48.666;8.948;2023-05-10T11:10:35;1.10;;;0.70;;
20379;SDS011;10349;48.666;8.948;2023-05-10T11:13:02;0.87;;;0.67;;
20379;SDS011;10349;48.666;8.948;2023-05-10T11:15:33;1.30;;;0.80;;
20379;SDS011;10349;48.666;8.948;2023-05-10T11:18:00;1.20;;;0.90;;
20379;SDS011;10349;48.666;8.948;2023-05-10T11:21:08;0.90;;;0.70;;
20379;SDS011;10349;48.666;8.948;2023-05-10T11:26:15;1.67;;;0.80;;
20379;SDS011;10349;48.666;8.948;2023-05-10T11:28:45;0.90;;;0.80;;
20379;SDS011;10349;48.666;8.948;2023-05-10T11:31:16;1.63;;;0.80;;
20379;SDS011;10349;48.666;8.948;2023-05-10T11:33:43;6.20;;;1.00;;
20379;SDS011;10349;48.666;8.948;2023-05-10T11:36:17;4.53;;;0.70;;
20379;SDS011;10349;48.666;8.948;2023-05-10T11:38:46;2.00;;;0.90;;
20379;SDS011;10349;48.666;8.948;2023-05-10T11:41:13;1.63;;;0.70;;
20379;SDS011;10349;48.666;8.948;2023-05-10T11:43:40;0.90;;;0.77;;
20379;SDS011;10349;48.666;8.948;2023-05-10T11:46:10;1.10;;;0.90;;
20379;SDS011;10349;48.666;8.948;2023-05-10T11:48:40;1.03;;;0.73;;
20379;SDS011;10349;48.666;8.948;2023-05-10T11:51:07;0.87;;;0.70;;
20379;SDS011;10349;48.666;8.948;2023-05-10T11:53:34;1.00;;;0.80;;
20379;SDS011;10349;48.666;8.948;2023-05-10T11:56:06;2.33;;;1.17;;
20379;SDS011;10349;48.666;8.948;2023-05-10T11:58:37;1.67;;;0.80;;
20379;SDS011;10349;48.666;8.948;2023-05-10T12:01:04;2.17;;;1.10;;
20379;SDS011;10349;48.666;8.948;2023-05-10T12:03:31;1.17;;;0.93;;
20379;SDS011;10349;48.666;8.948;2023-05-10T12:05:58;1.30;;;1.10;;
20379;SDS011;10349;48.666;8.948;2023-05-10T12:08:26;0.90;;;0.80;;
20379;SDS011;10349;48.666;8.948;2023-05-10T12:10:53;2.77;;;1.03;;
20379;SDS011;10349;48.666;8.948;2023-05-10T12:13:29;1.03;;;0.80;;
20379;SDS011;10349;48.666;8.948;2023-05-10T12:15:59;3.87;;;1.10;;
20379;SDS011;10349;48.666;8.948;2023-05-10T12:18:41;3.60;;;1.63;;
20379;SDS011;10349;48.666;8.948;2023-05-10T12:21:13;1.40;;;1.10;;
20379;SDS011;10349;48.666;8.948;2023-05-10T12:23:40;1.47;;;1.00;;
20379;SDS011;10349;48.666;8.948;2023-05-10T12:26:06;3.37;;;1.07;;
20379;SDS011;10349;48.666;8.948;2023-05-10T12:28:34;1.07;;;0.97;;
20379;SDS011;10349;48.666;8.948;2023-05-10T12:31:02;2.37;;;1.10;;
20379;SDS011;10349;48.666;8.948;2023-05-10T12:33:35;1.40;;;1.00;;
20379;SDS011;10349;48.666;8.948;2023-05-10T12:36:04;3.53;;;1.13;;
20379;SDS011;10349;48.666;8.948;2023-05-10T12:38:38;1.17;;;1.07;;
20379;SDS011;10349;48.666;8.948;2023-05-10T12:41:12;1.07;;;0.97;;
20379;SDS011;10349;48.666;8.948;2023-05-10T12:43:42;0.90;;;0.77;;
20379;SDS011;10349;48.666;8.948;2023-05-10T12:46:08;1.40;;;1.23;;
20379;SDS011;10349;48.666;8.948;2023-05-10T12:48:42;1.20;;;1.10;;
20379;SDS011;10349;48.666;8.948;2023-05-10T12:51:08;1.17;;;0.97;;
20379;SDS011;10349;48.666;8.948;2023-05-10T12:53:37;2.33;;;1.10;;
20379;SDS011;10349;48.666;8.948;2023-05-10T12:56:03;1.03;;;0.93;;
20379;SDS011;10349;48.666;8.948;2023-05-10T12:58:30;1.10;;;0.90;;
20379;SDS011;10349;48.666;8.948;2023-05-10T13:00:56;1.70;;;1.07;;
20379;SDS011;10349;48.666;8.948;2023-05-10T13:03:22;1.07;;;0.87;;
20379;SDS011;10349;48.666;8.948;2023-05-10T13:05:48;1.80;;;1.33;;
20379;SDS011;10349;48.666;8.948;2023-05-10T13:08:13;3.60;;;1.10;;
20379;SDS011;10349;48.666;8.948;2023-05-10T13:10:39;1.40;;;1.10;;
20379;SDS011;10349;48.666;8.948;2023-05-10T13:13:05;1.27;;;0.90;;
20379;SDS011;10349;48.666;8.948;2023-05-10T13:15:32;3.00;;;1.00;;
20379;SDS011;10349;48.666;8.948;2023-05-10T13:17:58;2.90;;;1.10;;
20379;SDS011;10349;48.666;8.948;2023-05-10T13:20:24;1.20;;;1.10;;
20379;SDS011;10349;48.666;8.948;2023-05-10T13:22:50;1.17;;;1.07;;
20379;SDS011;10349;48.666;8.948;2023-05-10T13:25:16;1.10;;;0.90;;
20379;SDS011;10349;48.666;8.948;2023-05-10T13:27:41;1.30;;;1.00;;
20379;SDS011;10349;48.666;8.948;2023-05-10T13:30:07;1.83;;;1.20;;
20379;SDS011;10349;48.666;8.948;2023-05-10T13:32:34;1.90;;;1.43;;
20379;SDS011;10349;48.666;8.948;2023-05-10T13:35:00;1.20;;;1.10;;
20379;SDS011;10349;48.666;8.948;2023-05-10T13:37:28;1.30;;;0.80;;
20379;SDS011;10349;48.666;8.948;2023-05-10T13:39:54;1.40;;;1.30;;
20379;SDS011;10349;48.666;8.948;2023-05-10T13:42:21;1.20;;;1.10;;
20379;SDS011;10349;48.666;8.948;2023-05-10T13:44:48;1.20;;;1.10;;
20379;SDS011;10349;48.666;8.948;2023-05-10T13:47:13;2.43;;;1.03;;
20379;SDS011;10349;48.666;8.948;2023-05-10T13:49:39;0.90;;;0.80;;
20379;SDS011;10349;48.666;8.948;2023-05-10T13:52:05;1.20;;;1.10;;
20379;SDS011;10349;48.666;8.948;2023-05-10T13:54:35;1.37;;;1.10;;
20379;SDS011;10349;48.666;8.948;2023-05-10T13:57:04;3.60;;;1.13;;
20379;SDS011;10349;48.666;8.948;2023-05-10T13:59:30;1.20;;;1.03;;
20379;SDS011;10349;48.666;8.948;2023-05-10T14:01:57;6.27;;;1.63;;
20379;SDS011;10349;48.666;8.948;2023-05-10T14:04:23;1.20;;;1.10;;
20379;SDS011;10349;48.666;8.948;2023-05-10T14:06:49;1.10;;;1.00;;
20379;SDS011;10349;48.666;8.948;2023-05-10T14:09:15;1.63;;;1.40;;
20379;SDS011;10349;48.666;8.948;2023-05-10T14:11:41;2.00;;;1.13;;
20379;SDS011;10349;48.666;8.948;2023-05-10T14:14:11;3.03;;;1.30;;
20379;SDS011;10349;48.666;8.948;2023-05-10T14:16:37;1.50;;;1.00;;
20379;SDS011;10349;48.666;8.948;2023-05-10T14:19:03;2.27;;;1.20;;
20379;SDS011;10349;48.666;8.948;2023-05-10T14:21:29;2.80;;;2.17;;
20379;SDS011;10349;48.666;8.948;2023-05-10T14:23:55;1.57;;;1.20;;
20379;SDS011;10349;48.666;8.948;2023-05-10T14:26:21;1.60;;;1.50;;
20379;SDS011;10349;48.666;8.948;2023-05-10T14:28:47;1.83;;;1.07;;
20379;SDS011;10349;48.666;8.948;2023-05-10T14:31:13;0.90;;;0.70;;
20379;SDS011;10349;48.666;8.948;2023-05-10T14:33:39;2.20;;;0.90;;
20379;SDS011;10349;48.666;8.948;2023-05-10T14:36:05;1.20;;;1.10;;
20379;SDS011;10349;48.666;8.948;2023-05-10T14:38:32;1.00;;;0.80;;
20379;SDS011;10349;48.666;8.948;2023-05-10T14:40:57;0.97;;;0.87;;
20379;SDS011;10349;48.666;8.948;2023-05-10T14:43:23;1.30;;;0.80;;
20379;SDS011;10349;48.666;8.948;2023-05-10T14:45:49;0.90;;;0.80;;
20379;SDS011;10349;48.666;8.948;2023-05-10T14:48:14;2.00;;;0.90;;
20379;SDS011;10349;48.666;8.948;2023-05-10T14:50:42;2.60;;;1.00;;
20379;SDS011;10349;48.666;8.948;2023-05-10T14:53:09;4.50;;;1.00;;
20379;SDS011;10349;48.666;8.948;2023-05-10T14:55:35;0.90;;;0.80;;
20379;SDS011;10349;48.666;8.948;2023-05-10T14:58:03;1.63;;;0.90;;
20379;SDS011;10349;48.666;8.948;2023-05-10T15:00:29;2.40;;;1.00;;
20379;SDS011;10349;48.666;8.948;2023-05-10T15:02:55;1.93;;;0.80;;
20379;SDS011;10349;48.666;8.948;2023-05-10T15:05:22;1.20;;;0.73;;
20379;SDS011;10349;48.666;8.948;2023-05-10T15:07:48;1.30;;;1.00;;
20379;SDS011;10349;48.666;8.948;2023-05-10T15:10:14;0.90;;;0.70;;
20379;SDS011;10349;48.666;8.948;2023-05-10T15:12:41;1.30;;;0.87;;
20379;SDS011;10349;48.666;8.948;2023-05-10T15:15:07;0.90;;;0.70;;
20379;SDS011;10349;48.666;8.948;2023-05-10T15:17:33;3.23;;;0.83;;
20379;SDS011;10349;48.666;8.948;2023-05-10T15:19:58;0.90;;;0.70;;
20379;SDS011;10349;48.666;8.948;2023-05-10T15:22:24;1.00;;;0.90;;
20379;SDS011;10349;48.666;8.948;2023-05-10T15:24:50;1.77;;;0.80;;
20379;SDS011;10349;48.666;8.948;2023-05-10T15:27:16;0.93;;;0.80;;
20379;SDS011;10349;48.666;8.948;2023-05-10T15:29:41;1.00;;;0.90;;
20379;SDS011;10349;48.666;8.948;2023-05-10T15:32:07;1.73;;;0.80;;
20379;SDS011;10349;48.666;8.948;2023-05-10T15:34:33;0.90;;;0.80;;
20379;SDS011;10349;48.666;8.948;2023-05-10T15:37:00;0.83;;;0.60;;
20379;SDS011;10349;48.666;8.948;2023-05-10T15:39:26;1.47;;;0.70;;